createdAt,value
2022-08-21T00:00:03.392Z,0.65
2022-08-21T00:02:31.830Z,0.45
2022-08-21T00:05:01.550Z,0.10
2022-08-21T00:07:29.913Z,0.30
2022-08-21T00:09:59.218Z,0.17
2022-08-21T00:12:28.183Z,0.68
2022-08-21T00:14:58.160Z,0.10
2022-08-21T00:17:26.686Z,0.10
2022-08-21T00:19:55.058Z,0.43
2022-08-21T00:22:24.869Z,0.28
2022-08-21T00:24:53.190Z,0.17
2022-08-21T00:27:21.706Z,0.40
2022-08-21T00:29:50.043Z,0.35
2022-08-21T00:32:22.227Z,0.17
2022-08-21T00:34:50.592Z,0.20
2022-08-21T00:37:19.049Z,0.10
2022-08-21T00:39:49.615Z,0.13
2022-08-21T00:42:18.505Z,0.20
2022-08-21T00:44:47.324Z,0.10
2022-08-21T00:47:15.840Z,0.25
2022-08-21T00:49:44.534Z,0.15
2022-08-21T00:52:14.331Z,0.20
2022-08-21T00:54:46.403Z,0.13
2022-08-21T00:57:18.660Z,0.00
2022-08-21T00:59:48.253Z,0.20
2022-08-21T01:02:16.573Z,0.35
2022-08-21T01:04:44.910Z,0.20
2022-08-21T01:07:13.607Z,0.10
2022-08-21T01:09:41.966Z,0.20
2022-08-21T01:12:10.662Z,0.20
2022-08-21T01:14:40.820Z,0.20
2022-08-21T01:17:09.598Z,0.30
2022-08-21T01:19:38.119Z,0.08
2022-08-21T01:22:07.909Z,0.30
2022-08-21T01:24:36.372Z,0.10
2022-08-21T01:27:05.471Z,0.10
2022-08-21T01:29:36.882Z,0.10
2022-08-21T01:32:07.125Z,0.17
2022-08-21T01:34:36.678Z,0.40
2022-08-21T01:37:05.529Z,0.20
2022-08-21T01:39:35.845Z,0.35
2022-08-21T01:42:04.299Z,0.20
2022-08-21T01:44:32.679Z,0.20
2022-08-21T01:47:01.600Z,0.30
2022-08-21T01:49:29.966Z,0.20
2022-08-21T01:51:58.341Z,0.13
2022-08-21T01:54:26.674Z,0.08
2022-08-21T01:56:57.150Z,0.10
2022-08-21T01:59:26.556Z,0.20
2022-08-21T02:01:55.410Z,0.30
2022-08-21T02:04:23.790Z,0.00
2022-08-21T02:06:52.668Z,0.40
2022-08-21T02:09:22.574Z,0.10
2022-08-21T02:11:51.139Z,0.30
2022-08-21T02:14:32.342Z,0.13
2022-08-21T02:17:08.846Z,0.30
2022-08-21T02:19:40.702Z,0.30
2022-08-21T02:22:09.849Z,0.13
2022-08-21T02:24:38.482Z,0.28
2022-08-21T02:29:54.442Z,0.17
2022-08-21T02:32:23.019Z,0.20
2022-08-21T02:34:51.500Z,0.20
2022-08-21T02:37:20.109Z,0.20
2022-08-21T02:39:48.698Z,0.17
2022-08-21T02:42:17.162Z,0.10
2022-08-21T02:44:45.487Z,0.10
2022-08-21T02:47:16.448Z,0.30
2022-08-21T02:49:44.811Z,0.00
2022-08-21T02:52:13.191Z,0.20
2022-08-21T02:54:41.763Z,0.32
2022-08-21T02:57:10.303Z,0.50
2022-08-21T02:59:38.735Z,0.35
2022-08-21T03:02:07.152Z,0.20
2022-08-21T03:04:36.969Z,0.10
2022-08-21T03:07:05.498Z,0.20
2022-08-21T03:09:39.670Z,0.17
2022-08-21T03:12:23.931Z,0.17
2022-08-21T03:14:52.304Z,0.55
2022-08-21T03:17:20.645Z,0.00
2022-08-21T03:19:59.864Z,0.22
2022-08-21T03:22:28.512Z,0.10
2022-08-21T03:25:00.319Z,0.10
2022-08-21T03:27:29.247Z,0.10
2022-08-21T03:29:58.675Z,0.10
2022-08-21T03:32:27.205Z,0.10
2022-08-21T03:34:55.548Z,0.10
2022-08-21T03:37:25.748Z,0.20
2022-08-21T03:39:54.207Z,0.10
2022-08-21T03:42:22.762Z,0.20
2022-08-21T03:44:51.108Z,0.57
2022-08-21T03:47:19.536Z,0.20
2022-08-21T03:49:47.853Z,0.10
2022-08-21T03:52:17.032Z,0.10
2022-08-21T03:54:47.273Z,0.52
2022-08-21T03:57:16.202Z,0.30
2022-08-21T03:59:44.720Z,0.10
2022-08-21T04:02:14.167Z,0.47
2022-08-21T04:04:42.525Z,0.15
2022-08-21T04:07:10.870Z,0.88
2022-08-21T04:09:39.765Z,0.10
2022-08-21T04:12:09.979Z,0.20
2022-08-21T04:14:38.347Z,0.30
2022-08-21T04:17:07.944Z,0.10
2022-08-21T04:19:36.325Z,0.20
2022-08-21T04:22:05.122Z,0.20
2022-08-21T04:24:33.475Z,0.15
2022-08-21T04:27:01.798Z,0.10
2022-08-21T04:29:31.555Z,0.15
2022-08-21T04:32:00.311Z,0.20
2022-08-21T04:34:28.694Z,0.10
2022-08-21T04:36:57.023Z,0.25
2022-08-21T04:39:25.394Z,0.10
2022-08-21T04:41:58.445Z,0.10
2022-08-21T04:44:26.791Z,0.10
2022-08-21T04:46:56.457Z,0.17
2022-08-21T04:49:24.856Z,0.43
2022-08-21T04:51:53.313Z,0.08
2022-08-21T04:54:23.756Z,0.10
2022-08-21T04:56:53.993Z,0.15
2022-08-21T04:59:25.396Z,0.10
2022-08-21T05:01:55.257Z,0.17
2022-08-21T05:04:26.868Z,0.20
2022-08-21T05:06:57.249Z,0.10
2022-08-21T05:09:26.132Z,0.20
2022-08-21T05:11:54.479Z,0.40
2022-08-21T05:14:22.830Z,0.00
2022-08-21T05:16:51.166Z,0.00
2022-08-21T05:19:19.662Z,0.00
2022-08-21T05:21:49.494Z,0.10
2022-08-21T05:24:18.769Z,0.10
2022-08-21T05:26:47.904Z,0.13
2022-08-21T05:29:16.959Z,0.20
2022-08-21T05:31:46.749Z,0.10
2022-08-21T05:34:16.278Z,0.10
2022-08-21T05:36:45.534Z,0.10
2022-08-21T05:39:15.329Z,0.10
2022-08-21T05:41:43.654Z,0.03
2022-08-21T05:44:12.026Z,0.10
2022-08-21T05:46:40.904Z,0.00
2022-08-21T05:49:09.296Z,0.10
2022-08-21T05:51:37.908Z,0.10
2022-08-21T05:54:06.253Z,0.00
2022-08-21T05:56:36.079Z,0.10
2022-08-21T05:59:04.605Z,0.20
2022-08-21T06:01:37.316Z,0.20
2022-08-21T06:04:06.304Z,0.22
2022-08-21T06:06:34.667Z,0.40
2022-08-21T06:09:03.433Z,0.17
2022-08-21T06:11:31.949Z,0.20
2022-08-21T06:14:02.059Z,0.20
2022-08-21T06:16:30.862Z,0.20
2022-08-21T06:19:02.781Z,0.20
2022-08-21T06:21:31.524Z,0.10
2022-08-21T06:24:00.221Z,0.20
2022-08-21T06:26:29.054Z,0.38
2022-08-21T06:28:57.427Z,0.05
2022-08-21T06:31:28.435Z,0.17
2022-08-21T06:33:56.873Z,0.22
2022-08-21T06:36:25.337Z,0.30
2022-08-21T06:38:53.701Z,0.10
2022-08-21T06:41:24.120Z,0.45
2022-08-21T06:43:54.970Z,0.52
2022-08-21T06:46:23.492Z,0.20
2022-08-21T06:48:53.285Z,0.22
2022-08-21T06:51:21.649Z,0.28
2022-08-21T06:53:50.425Z,0.32
2022-08-21T06:56:19.001Z,0.40
2022-08-21T06:58:47.315Z,0.17
2022-08-21T07:01:15.710Z,0.17
2022-08-21T07:03:44.947Z,0.45
2022-08-21T07:06:14.704Z,0.20
2022-08-21T07:08:43.047Z,0.20
2022-08-21T07:11:15.829Z,0.40
2022-08-21T07:13:44.169Z,0.43
2022-08-21T07:16:12.579Z,0.38
2022-08-21T07:18:41.021Z,0.50
2022-08-21T07:21:09.891Z,0.55
2022-08-21T07:23:42.211Z,0.75
2022-08-21T07:26:11.779Z,0.45
2022-08-21T07:28:40.142Z,0.65
2022-08-21T07:31:08.530Z,0.68
2022-08-21T07:33:37.480Z,0.52
2022-08-21T07:36:09.318Z,1.00
2022-08-21T07:38:37.752Z,0.80
2022-08-21T07:41:16.558Z,0.73
2022-08-21T07:43:45.993Z,0.75
2022-08-21T07:46:14.884Z,0.50
2022-08-21T07:48:43.891Z,0.38
2022-08-21T07:51:12.949Z,0.32
2022-08-21T07:53:42.048Z,0.73
2022-08-21T07:56:13.191Z,0.47
2022-08-21T07:58:41.648Z,0.60
2022-08-21T08:01:10.049Z,0.55
2022-08-21T08:03:39.652Z,0.57
2022-08-21T08:06:12.312Z,0.65
2022-08-21T08:08:41.633Z,0.60
2022-08-21T08:11:11.748Z,0.80
2022-08-21T08:13:43.433Z,0.90
2022-08-21T08:16:11.896Z,0.90
2022-08-21T08:18:40.305Z,0.60
2022-08-21T08:21:09.335Z,0.73
2022-08-21T08:23:37.727Z,0.73
2022-08-21T08:26:09.002Z,0.77
2022-08-21T08:28:37.396Z,0.47
2022-08-21T08:31:10.222Z,0.50
2022-08-21T08:33:38.611Z,0.55
2022-08-21T08:36:14.952Z,0.43
2022-08-21T08:38:43.367Z,0.77
2022-08-21T08:41:14.547Z,0.28
2022-08-21T08:43:43.702Z,1.23
2022-08-21T08:46:16.817Z,0.70
2022-08-21T08:48:52.889Z,0.75
2022-08-21T08:51:24.127Z,1.48
2022-08-21T08:53:54.590Z,1.13
2022-08-21T08:56:25.242Z,0.90
2022-08-21T08:58:55.332Z,0.60
2022-08-21T09:01:25.064Z,0.60
2022-08-21T09:03:56.554Z,0.20
2022-08-21T09:06:31.136Z,0.77
2022-08-21T09:09:05.253Z,0.40
2022-08-21T09:11:36.528Z,0.57
2022-08-21T09:14:12.652Z,1.27
2022-08-21T09:16:49.263Z,0.70
2022-08-21T09:19:26.453Z,0.52
2022-08-21T09:24:29.330Z,0.60
2022-08-21T09:27:06.119Z,0.70
2022-08-21T09:29:35.892Z,0.63
2022-08-21T09:32:06.639Z,0.55
2022-08-21T09:34:35.029Z,0.65
2022-08-21T09:37:03.440Z,0.77
2022-08-21T09:39:32.843Z,1.13
2022-08-21T09:42:09.951Z,0.70
2022-08-21T09:44:44.317Z,0.80
2022-08-21T09:47:14.711Z,0.70
2022-08-21T09:49:44.869Z,0.77
2022-08-21T09:52:18.990Z,0.60
2022-08-21T09:54:48.240Z,0.90
2022-08-21T09:57:38.998Z,0.80
2022-08-21T10:00:21.686Z,0.82
2022-08-21T10:02:51.477Z,0.38
2022-08-21T10:05:21.265Z,0.60
2022-08-21T10:07:49.656Z,0.63
2022-08-21T10:10:20.438Z,0.73
2022-08-21T10:12:52.651Z,0.77
2022-08-21T10:15:27.183Z,0.82
2022-08-21T10:18:00.865Z,0.65
2022-08-21T10:20:32.596Z,0.52
2022-08-21T10:23:06.574Z,0.50
2022-08-21T10:25:38.371Z,0.70
2022-08-21T10:28:13.528Z,0.60
2022-08-21T10:30:49.255Z,0.38
2022-08-21T10:33:23.837Z,0.80
2022-08-21T10:35:57.050Z,0.50
2022-08-21T10:39:07.096Z,0.70
2022-08-21T10:41:38.633Z,0.70
2022-08-21T10:44:12.592Z,0.85
2022-08-21T10:46:47.082Z,0.70
2022-08-21T10:49:33.499Z,0.47
2022-08-21T10:52:12.320Z,0.82
2022-08-21T10:54:44.671Z,0.65
2022-08-21T10:57:17.277Z,0.50
2022-08-21T11:02:29.226Z,0.57
2022-08-21T11:04:59.929Z,0.60
2022-08-21T11:07:34.036Z,0.82
2022-08-21T11:10:05.073Z,0.70
2022-08-21T11:12:36.890Z,0.57
2022-08-21T11:15:08.474Z,0.47
2022-08-21T11:18:01.399Z,0.50
2022-08-21T11:20:31.807Z,0.47
2022-08-21T11:23:06.430Z,0.70
2022-08-21T11:28:14.268Z,0.50
2022-08-21T11:30:47.745Z,0.70
2022-08-21T11:33:23.135Z,0.77
2022-08-21T11:35:55.868Z,0.68
2022-08-21T11:38:36.596Z,0.70
2022-08-21T11:41:20.136Z,0.50
2022-08-21T11:43:49.973Z,0.60
2022-08-21T11:46:23.729Z,0.68
2022-08-21T11:49:00.827Z,0.85
2022-08-21T11:51:30.730Z,0.60
2022-08-21T11:54:03.379Z,0.52
2022-08-21T11:56:39.667Z,0.55
2022-08-21T11:59:12.337Z,0.57
2022-08-21T12:01:42.582Z,0.90
2022-08-21T12:04:12.488Z,0.57
2022-08-21T12:06:42.211Z,0.57
2022-08-21T12:09:14.228Z,0.70
2022-08-21T12:11:52.590Z,0.70
2022-08-21T12:14:21.904Z,0.52
2022-08-21T12:16:52.117Z,0.55
2022-08-21T12:19:31.854Z,0.80
2022-08-21T12:22:02.062Z,0.75
2022-08-21T12:24:37.092Z,0.68
2022-08-21T12:27:16.663Z,0.75
2022-08-21T12:29:48.962Z,0.50
2022-08-21T12:32:26.799Z,0.60
2022-08-21T12:34:57.702Z,0.70
2022-08-21T12:37:28.789Z,0.70
2022-08-21T12:40:01.824Z,0.38
2022-08-21T12:42:34.341Z,0.65
2022-08-21T12:45:05.373Z,0.32
2022-08-21T12:47:36.011Z,0.68
2022-08-21T12:50:07.525Z,0.60
2022-08-21T12:52:39.361Z,0.50
2022-08-21T12:55:10.206Z,0.68
2022-08-21T12:57:39.332Z,0.70
2022-08-21T13:00:10.136Z,0.75
2022-08-21T13:02:40.908Z,0.65
2022-08-21T13:05:10.714Z,0.63
2022-08-21T13:07:39.856Z,1.13
2022-08-21T13:10:16.910Z,0.68
2022-08-21T13:12:46.142Z,0.50
2022-08-21T13:15:14.594Z,0.57
2022-08-21T13:17:44.677Z,0.40
2022-08-21T13:20:21.203Z,0.60
2022-08-21T13:22:50.062Z,0.45
2022-08-21T13:25:21.316Z,0.75
2022-08-21T13:27:59.867Z,0.43
2022-08-21T13:30:28.239Z,0.77
2022-08-21T13:32:58.954Z,0.65
2022-08-21T13:35:28.842Z,0.50
2022-08-21T13:37:57.848Z,0.77
2022-08-21T13:40:29.803Z,0.47
2022-08-21T13:42:59.086Z,0.68
2022-08-21T13:45:28.945Z,0.60
2022-08-21T13:47:57.875Z,0.60
2022-08-21T13:50:27.950Z,0.55
2022-08-21T13:53:01.099Z,0.75
2022-08-21T13:55:39.435Z,0.82
2022-08-21T13:58:08.208Z,0.68
2022-08-21T14:00:38.762Z,0.50
2022-08-21T14:03:11.508Z,0.60
2022-08-21T14:05:40.836Z,0.43
2022-08-21T14:08:10.728Z,0.68
2022-08-21T14:10:45.149Z,0.55
2022-08-21T14:13:26.980Z,0.45
2022-08-21T14:15:57.620Z,0.82
2022-08-21T14:18:26.893Z,0.65
2022-08-21T14:21:07.833Z,0.60
2022-08-21T14:23:36.559Z,0.55
2022-08-21T14:26:09.749Z,0.80
2022-08-21T14:28:41.882Z,0.55
2022-08-21T14:31:15.261Z,0.50
2022-08-21T14:33:43.709Z,0.50
2022-08-21T14:36:12.095Z,0.43
2022-08-21T14:38:42.047Z,0.60
2022-08-21T14:41:17.848Z,0.43
2022-08-21T14:43:46.608Z,0.60
2022-08-21T14:46:15.835Z,0.80
2022-08-21T14:48:44.175Z,0.45
2022-08-21T14:51:12.632Z,0.40
2022-08-21T14:53:41.045Z,0.60
2022-08-21T14:56:09.877Z,0.32
2022-08-21T14:58:40.522Z,0.60
2022-08-21T15:01:09.669Z,0.50
2022-08-21T15:03:38.236Z,0.60
2022-08-21T15:06:10.952Z,0.50
2022-08-21T15:08:39.691Z,0.75
2022-08-21T15:11:12.056Z,0.50
2022-08-21T15:13:43.364Z,0.50
2022-08-21T15:16:13.072Z,0.70
2022-08-21T15:18:42.811Z,0.63
2022-08-21T15:21:11.314Z,0.95
2022-08-21T15:23:43.688Z,0.77
2022-08-21T15:26:12.475Z,0.60
2022-08-21T15:28:40.873Z,0.60
2022-08-21T15:31:10.634Z,0.63
2022-08-21T15:33:38.994Z,0.77
2022-08-21T15:36:10.284Z,0.98
2022-08-21T15:38:38.648Z,0.60
2022-08-21T15:41:10.108Z,0.65
2022-08-21T15:43:42.242Z,0.55
2022-08-21T15:46:12.941Z,0.60
2022-08-21T15:48:41.343Z,0.90
2022-08-21T15:51:09.711Z,0.70
2022-08-21T15:53:40.058Z,0.77
2022-08-21T15:56:09.159Z,0.50
2022-08-21T15:58:38.359Z,0.52
2022-08-21T16:01:09.820Z,0.60
2022-08-21T16:03:39.612Z,0.60
2022-08-21T16:06:08.234Z,0.57
2022-08-21T16:08:36.552Z,0.60
2022-08-21T16:11:07.971Z,0.60
2022-08-21T16:13:37.978Z,0.55
2022-08-21T16:16:09.561Z,0.45
2022-08-21T16:18:40.968Z,0.65
2022-08-21T16:21:09.598Z,0.60
2022-08-21T16:23:39.071Z,0.70
2022-08-21T16:26:11.404Z,0.68
2022-08-21T16:28:47.372Z,0.38
2022-08-21T16:31:16.527Z,0.70
2022-08-21T16:33:48.286Z,1.00
2022-08-21T16:36:17.155Z,0.40
2022-08-21T16:38:45.667Z,0.88
2022-08-21T16:41:15.476Z,0.85
2022-08-21T16:43:44.454Z,0.90
2022-08-21T16:46:13.873Z,0.70
2022-08-21T16:48:42.774Z,0.75
2022-08-21T16:51:12.760Z,0.60
2022-08-21T16:53:41.216Z,0.45
2022-08-21T16:56:10.172Z,0.60
2022-08-21T16:58:39.881Z,0.70
2022-08-21T17:01:10.340Z,0.77
2022-08-21T17:03:40.140Z,0.75
2022-08-21T17:06:09.053Z,0.60
2022-08-21T17:08:39.251Z,0.82
2022-08-21T17:11:07.800Z,0.82
2022-08-21T17:13:36.433Z,0.45
2022-08-21T17:16:07.944Z,0.50
2022-08-21T17:18:36.298Z,0.68
2022-08-21T17:21:07.671Z,0.65
2022-08-21T17:23:36.123Z,0.60
2022-08-21T17:26:11.602Z,0.57
2022-08-21T17:31:10.652Z,0.77
2022-08-21T17:33:42.973Z,0.60
2022-08-21T17:36:11.493Z,0.43
2022-08-21T17:38:39.990Z,0.77
2022-08-21T17:41:08.514Z,0.57
2022-08-21T17:43:38.319Z,0.77
2022-08-21T17:46:10.075Z,0.75
2022-08-21T17:48:39.015Z,0.40
2022-08-21T17:51:11.726Z,0.63
2022-08-21T17:53:40.292Z,0.75
2022-08-21T17:56:09.311Z,0.70
2022-08-21T17:58:39.446Z,0.63
2022-08-21T18:01:07.935Z,0.45
2022-08-21T18:03:38.480Z,0.63
2022-08-21T18:06:12.355Z,0.35
2022-08-21T18:08:43.959Z,0.50
2022-08-21T18:11:18.056Z,0.55
2022-08-21T18:13:54.591Z,1.20
2022-08-21T18:16:23.122Z,0.70
2022-08-21T18:18:52.818Z,0.60
2022-08-21T18:21:21.486Z,1.08
2022-08-21T18:23:50.049Z,0.35
2022-08-21T18:26:24.939Z,0.73
2022-08-21T18:31:22.911Z,0.85
2022-08-21T18:33:58.161Z,0.88
2022-08-21T18:36:27.676Z,0.55
2022-08-21T18:39:13.531Z,0.57
2022-08-21T18:41:47.028Z,0.60
2022-08-21T18:44:16.563Z,0.73
2022-08-21T18:46:48.294Z,0.90
2022-08-21T18:49:16.690Z,0.52
2022-08-21T18:51:45.548Z,0.60
2022-08-21T18:54:13.988Z,0.75
2022-08-21T18:56:42.900Z,0.35
2022-08-21T18:59:11.750Z,1.00
2022-08-21T19:01:40.247Z,0.70
2022-08-21T19:04:21.290Z,0.85
2022-08-21T19:06:58.716Z,0.65
2022-08-21T19:09:27.153Z,0.38
2022-08-21T19:11:55.978Z,0.85
2022-08-21T19:14:24.523Z,0.93
2022-08-21T19:16:53.747Z,0.80
2022-08-21T19:19:23.872Z,0.38
2022-08-21T19:21:52.522Z,1.17
2022-08-21T19:24:23.322Z,0.40
2022-08-21T19:26:56.004Z,0.60
2022-08-21T19:29:34.667Z,0.47
2022-08-21T19:32:05.434Z,0.50
2022-08-21T19:34:37.584Z,0.70
2022-08-21T19:37:06.549Z,0.88
2022-08-21T19:39:42.380Z,0.88
2022-08-21T19:42:15.615Z,1.25
2022-08-21T19:44:45.287Z,0.50
2022-08-21T19:47:19.095Z,0.65
2022-08-21T19:49:51.047Z,1.07
2022-08-21T19:52:19.914Z,1.30
2022-08-21T19:54:48.487Z,0.77
2022-08-21T19:57:17.310Z,0.52
2022-08-21T19:59:46.383Z,0.93
2022-08-21T20:02:17.344Z,1.05
2022-08-21T20:04:54.096Z,0.88
2022-08-21T20:07:26.434Z,0.63
2022-08-21T20:09:55.558Z,0.60
2022-08-21T20:12:25.025Z,0.20
2022-08-21T20:14:53.566Z,0.40
2022-08-21T20:17:22.266Z,0.70
2022-08-21T20:19:55.166Z,0.40
2022-08-21T20:22:41.975Z,0.93
2022-08-21T20:25:10.444Z,0.43
2022-08-21T20:27:40.424Z,0.50
2022-08-21T20:30:10.878Z,0.50
2022-08-21T20:32:39.310Z,0.40
2022-08-21T20:38:01.657Z,0.25
2022-08-21T20:40:33.023Z,0.40
2022-08-21T20:43:02.470Z,0.50
2022-08-21T20:45:32.436Z,0.55
2022-08-21T20:48:03.489Z,0.30
2022-08-21T20:50:33.648Z,0.30
2022-08-21T20:53:08.338Z,0.63
2022-08-21T20:55:38.949Z,0.30
2022-08-21T20:58:09.243Z,0.50
2022-08-21T21:00:43.960Z,0.73
2022-08-21T21:03:13.970Z,0.73
2022-08-21T21:05:45.075Z,0.50
2022-08-21T21:08:18.659Z,0.57
2022-08-21T21:10:49.716Z,0.45
2022-08-21T21:13:20.351Z,0.40
2022-08-21T21:15:50.531Z,0.50
2022-08-21T21:18:20.688Z,0.30
2022-08-21T21:20:51.699Z,0.30
2022-08-21T21:23:26.109Z,0.60
2022-08-21T21:25:59.250Z,0.57
2022-08-21T21:28:31.936Z,1.30
2022-08-21T21:31:05.517Z,0.43
2022-08-21T21:33:33.931Z,0.60
2022-08-21T21:36:08.299Z,0.70
2022-08-21T21:38:51.993Z,0.52
2022-08-21T21:41:41.383Z,0.57
2022-08-21T21:44:16.552Z,0.32
2022-08-21T21:46:50.461Z,0.60
2022-08-21T21:49:30.117Z,0.40
2022-08-21T21:52:06.733Z,0.77
2022-08-21T21:54:57.121Z,0.60
2022-08-21T21:57:36.545Z,0.40
2022-08-21T22:00:10.042Z,0.47
2022-08-21T22:02:42.553Z,0.55
2022-08-21T22:05:16.137Z,0.55
2022-08-21T22:07:50.471Z,0.40
2022-08-21T22:10:30.130Z,0.50
2022-08-21T22:13:04.874Z,0.70
2022-08-21T22:18:29.227Z,0.52
2022-08-21T22:21:02.359Z,0.68
2022-08-21T22:23:38.711Z,0.52
2022-08-21T22:26:12.243Z,0.60
2022-08-21T22:28:43.762Z,1.20
2022-08-21T22:31:14.728Z,0.32
2022-08-21T22:34:01.127Z,0.50
2022-08-21T22:36:31.741Z,0.82
2022-08-21T22:39:00.180Z,0.80
2022-08-21T22:41:29.623Z,0.60
2022-08-21T22:44:01.944Z,0.35
2022-08-21T22:46:33.576Z,0.43
2022-08-21T22:49:04.389Z,0.38
2022-08-21T22:51:36.257Z,0.50
2022-08-21T22:54:16.882Z,0.90
2022-08-21T22:57:00.223Z,0.40
2022-08-21T22:59:31.105Z,0.57
2022-08-21T23:02:00.689Z,0.47
2022-08-21T23:04:29.452Z,0.60
2022-08-21T23:06:58.554Z,0.63
2022-08-21T23:09:32.002Z,0.30
2022-08-21T23:12:21.332Z,0.55
2022-08-21T23:14:54.666Z,0.60
2022-08-21T23:17:31.193Z,0.52
2022-08-21T23:20:04.495Z,0.45
2022-08-21T23:22:37.195Z,0.55
2022-08-21T23:25:14.924Z,0.50
2022-08-21T23:27:54.571Z,0.30
2022-08-21T23:30:32.815Z,0.50
2022-08-21T23:33:22.214Z,0.47
2022-08-21T23:36:11.287Z,0.52
2022-08-21T23:38:51.357Z,0.55
2022-08-21T23:41:34.076Z,0.60
2022-08-21T23:44:12.005Z,0.57
2022-08-21T23:46:58.564Z,0.60
2022-08-21T23:49:31.407Z,0.30
2022-08-21T23:52:05.131Z,0.40
2022-08-21T23:54:40.440Z,0.45
2022-08-21T23:57:12.564Z,0.40
